sensor_id;sensor_type;location;lat;lon;timestamp;P1;durP1;ratioP1;P2;durP2;ratioP2
22967;SDS011;11650;48.106;-1.696;2023-07-22T00:00:43;7.37;;;2.67;;
22967;SDS011;11650;48.106;-1.696;2023-07-22T00:03:09;8.70;;;3.00;;
22967;SDS011;11650;48.106;-1.696;2023-07-22T00:05:34;7.53;;;2.83;;
22967;SDS011;11650;48.106;-1.696;2023-07-22T00:08:00;12.10;;;3.00;;
22967;SDS011;11650;48.106;-1.696;2023-07-22T00:10:26;6.07;;;2.70;;
22967;SDS011;11650;48.106;-1.696;2023-07-22T00:12:51;7.57;;;2.87;;
22967;SDS011;11650;48.106;-1.696;2023-07-22T00:15:17;10.27;;;2.87;;
22967;SDS011;11650;48.106;-1.696;2023-07-22T00:17:43;10.27;;;2.87;;
22967;SDS011;11650;48.106;-1.696;2023-07-22T00:20:08;6.43;;;2.70;;
22967;SDS011;11650;48.106;-1.696;2023-07-22T00:22:39;8.07;;;3.20;;
22967;SDS011;11650;48.106;-1.696;2023-07-22T00:25:05;9.23;;;3.30;;
22967;SDS011;11650;48.106;-1.696;2023-07-22T00:27:39;7.47;;;2.77;;
22967;SDS011;11650;48.106;-1.696;2023-07-22T00:30:06;10.47;;;2.90;;
22967;SDS011;11650;48.106;-1.696;2023-07-22T00:32:35;9.50;;;2.63;;
22967;SDS011;11650;48.106;-1.696;2023-07-22T00:35:04;6.83;;;2.80;;
22967;SDS011;11650;48.106;-1.696;2023-07-22T00:37:31;10.13;;;2.73;;
22967;SDS011;11650;48.106;-1.696;2023-07-22T00:39:57;8.27;;;2.70;;
22967;SDS011;11650;48.106;-1.696;2023-07-22T00:42:23;6.80;;;2.40;;
22967;SDS011;11650;48.106;-1.696;2023-07-22T00:44:48;3.80;;;2.40;;
22967;SDS011;11650;48.106;-1.696;2023-07-22T00:47:14;6.03;;;2.80;;
22967;SDS011;11650;48.106;-1.696;2023-07-22T00:49:41;8.47;;;2.53;;
22967;SDS011;11650;48.106;-1.696;2023-07-22T00:52:07;11.87;;;3.47;;
22967;SDS011;11650;48.106;-1.696;2023-07-22T00:54:32;6.63;;;3.00;;
22967;SDS011;11650;48.106;-1.696;2023-07-22T00:56:58;10.53;;;3.50;;
22967;SDS011;11650;48.106;-1.696;2023-07-22T00:59:24;9.27;;;3.43;;
22967;SDS011;11650;48.106;-1.696;2023-07-22T01:01:50;6.63;;;3.20;;
22967;SDS011;11650;48.106;-1.696;2023-07-22T01:04:16;9.87;;;3.43;;
22967;SDS011;11650;48.106;-1.696;2023-07-22T01:06:45;10.17;;;3.70;;
22967;SDS011;11650;48.106;-1.696;2023-07-22T01:09:11;11.70;;;4.20;;
22967;SDS011;11650;48.106;-1.696;2023-07-22T01:11:36;11.03;;;4.10;;
22967;SDS011;11650;48.106;-1.696;2023-07-22T01:14:02;9.27;;;4.10;;
22967;SDS011;11650;48.106;-1.696;2023-07-22T01:16:28;10.60;;;4.20;;
22967;SDS011;11650;48.106;-1.696;2023-07-22T01:18:55;10.20;;;4.70;;
22967;SDS011;11650;48.106;-1.696;2023-07-22T01:21:24;11.30;;;4.90;;
22967;SDS011;11650;48.106;-1.696;2023-07-22T01:23:50;8.40;;;4.60;;
22967;SDS011;11650;48.106;-1.696;2023-07-22T01:26:16;12.53;;;4.97;;
22967;SDS011;11650;48.106;-1.696;2023-07-22T01:28:43;11.67;;;5.40;;
22967;SDS011;11650;48.106;-1.696;2023-07-22T01:31:08;8.87;;;5.00;;
22967;SDS011;11650;48.106;-1.696;2023-07-22T01:33:34;12.20;;;5.27;;
22967;SDS011;11650;48.106;-1.696;2023-07-22T01:36:00;11.57;;;5.70;;
22967;SDS011;11650;48.106;-1.696;2023-07-22T01:38:26;16.63;;;6.07;;
22967;SDS011;11650;48.106;-1.696;2023-07-22T01:40:52;17.13;;;6.43;;
22967;SDS011;11650;48.106;-1.696;2023-07-22T01:43:18;12.13;;;6.37;;
22967;SDS011;11650;48.106;-1.696;2023-07-22T01:45:43;14.20;;;6.47;;
22967;SDS011;11650;48.106;-1.696;2023-07-22T01:48:09;15.50;;;7.00;;
22967;SDS011;11650;48.106;-1.696;2023-07-22T01:50:34;13.00;;;6.43;;
22967;SDS011;11650;48.106;-1.696;2023-07-22T01:53:00;13.57;;;6.57;;
22967;SDS011;11650;48.106;-1.696;2023-07-22T01:55:26;11.03;;;6.00;;
22967;SDS011;11650;48.106;-1.696;2023-07-22T01:57:51;17.17;;;7.17;;
22967;SDS011;11650;48.106;-1.696;2023-07-22T02:00:17;12.57;;;6.47;;
22967;SDS011;11650;48.106;-1.696;2023-07-22T02:02:43;13.33;;;6.67;;
22967;SDS011;11650;48.106;-1.696;2023-07-22T02:05:08;14.13;;;6.60;;
22967;SDS011;11650;48.106;-1.696;2023-07-22T02:07:35;12.33;;;6.57;;
22967;SDS011;11650;48.106;-1.696;2023-07-22T02:10:01;13.43;;;6.77;;
22967;SDS011;11650;48.106;-1.696;2023-07-22T02:12:28;15.37;;;7.17;;
22967;SDS011;11650;48.106;-1.696;2023-07-22T02:14:53;15.20;;;7.00;;
22967;SDS011;11650;48.106;-1.696;2023-07-22T02:17:19;12.37;;;6.90;;
22967;SDS011;11650;48.106;-1.696;2023-07-22T02:19:45;15.97;;;7.00;;
22967;SDS011;11650;48.106;-1.696;2023-07-22T02:22:11;13.40;;;6.50;;
22967;SDS011;11650;48.106;-1.696;2023-07-22T02:24:37;11.33;;;6.23;;
22967;SDS011;11650;48.106;-1.696;2023-07-22T02:27:03;10.63;;;6.00;;
22967;SDS011;11650;48.106;-1.696;2023-07-22T02:29:29;12.27;;;6.13;;
22967;SDS011;11650;48.106;-1.696;2023-07-22T02:31:58;12.80;;;6.30;;
22967;SDS011;11650;48.106;-1.696;2023-07-22T02:34:23;19.47;;;6.30;;
22967;SDS011;11650;48.106;-1.696;2023-07-22T02:36:49;12.00;;;6.63;;
22967;SDS011;11650;48.106;-1.696;2023-07-22T02:39:15;15.87;;;6.37;;
22967;SDS011;11650;48.106;-1.696;2023-07-22T02:41:40;11.50;;;6.47;;
22967;SDS011;11650;48.106;-1.696;2023-07-22T02:44:06;11.33;;;6.60;;
22967;SDS011;11650;48.106;-1.696;2023-07-22T02:46:32;15.53;;;6.63;;
22967;SDS011;11650;48.106;-1.696;2023-07-22T02:48:58;17.43;;;6.47;;
22967;SDS011;11650;48.106;-1.696;2023-07-22T02:51:24;13.17;;;6.53;;
22967;SDS011;11650;48.106;-1.696;2023-07-22T02:53:49;12.53;;;6.20;;
22967;SDS011;11650;48.106;-1.696;2023-07-22T02:56:15;14.00;;;6.40;;
22967;SDS011;11650;48.106;-1.696;2023-07-22T02:58:41;11.20;;;6.53;;
22967;SDS011;11650;48.106;-1.696;2023-07-22T03:01:09;12.90;;;6.10;;
22967;SDS011;11650;48.106;-1.696;2023-07-22T03:03:35;14.20;;;6.70;;
22967;SDS011;11650;48.106;-1.696;2023-07-22T03:06:01;13.40;;;7.00;;
22967;SDS011;11650;48.106;-1.696;2023-07-22T03:08:28;14.23;;;6.50;;
22967;SDS011;11650;48.106;-1.696;2023-07-22T03:10:54;12.73;;;6.37;;
22967;SDS011;11650;48.106;-1.696;2023-07-22T03:13:20;15.80;;;6.40;;
22967;SDS011;11650;48.106;-1.696;2023-07-22T03:15:45;16.70;;;6.17;;
22967;SDS011;11650;48.106;-1.696;2023-07-22T03:18:11;12.40;;;6.10;;
22967;SDS011;11650;48.106;-1.696;2023-07-22T03:20:37;18.33;;;5.80;;
22967;SDS011;11650;48.106;-1.696;2023-07-22T03:23:04;13.77;;;6.43;;
22967;SDS011;11650;48.106;-1.696;2023-07-22T03:25:30;15.77;;;6.50;;
22967;SDS011;11650;48.106;-1.696;2023-07-22T03:27:56;18.10;;;7.27;;
22967;SDS011;11650;48.106;-1.696;2023-07-22T03:30:22;11.77;;;6.03;;
22967;SDS011;11650;48.106;-1.696;2023-07-22T03:32:48;12.83;;;6.20;;
22967;SDS011;11650;48.106;-1.696;2023-07-22T03:35:15;10.77;;;5.77;;
22967;SDS011;11650;48.106;-1.696;2023-07-22T03:37:42;13.50;;;5.87;;
22967;SDS011;11650;48.106;-1.696;2023-07-22T03:40:08;9.93;;;5.57;;
22967;SDS011;11650;48.106;-1.696;2023-07-22T03:42:52;10.33;;;5.23;;
22967;SDS011;11650;48.106;-1.696;2023-07-22T03:45:19;18.20;;;5.50;;
22967;SDS011;11650;48.106;-1.696;2023-07-22T03:47:46;10.43;;;5.73;;
22967;SDS011;11650;48.106;-1.696;2023-07-22T03:50:16;9.13;;;5.67;;
22967;SDS011;11650;48.106;-1.696;2023-07-22T03:52:42;10.63;;;5.33;;
22967;SDS011;11650;48.106;-1.696;2023-07-22T03:55:07;14.47;;;5.73;;
22967;SDS011;11650;48.106;-1.696;2023-07-22T03:57:33;10.37;;;5.27;;
22967;SDS011;11650;48.106;-1.696;2023-07-22T03:59:59;12.53;;;5.20;;
22967;SDS011;11650;48.106;-1.696;2023-07-22T04:02:25;12.33;;;5.67;;
22967;SDS011;11650;48.106;-1.696;2023-07-22T04:04:53;12.23;;;5.50;;
22967;SDS011;11650;48.106;-1.696;2023-07-22T04:07:19;9.80;;;5.50;;
22967;SDS011;11650;48.106;-1.696;2023-07-22T04:09:45;11.03;;;5.50;;
22967;SDS011;11650;48.106;-1.696;2023-07-22T04:12:11;12.53;;;5.07;;
22967;SDS011;11650;48.106;-1.696;2023-07-22T04:14:37;12.43;;;5.73;;
22967;SDS011;11650;48.106;-1.696;2023-07-22T04:17:03;8.37;;;5.33;;
22967;SDS011;11650;48.106;-1.696;2023-07-22T04:19:29;13.57;;;4.83;;
22967;SDS011;11650;48.106;-1.696;2023-07-22T04:21:55;10.23;;;4.93;;
22967;SDS011;11650;48.106;-1.696;2023-07-22T04:24:21;14.20;;;5.13;;
22967;SDS011;11650;48.106;-1.696;2023-07-22T04:26:47;10.33;;;4.90;;
22967;SDS011;11650;48.106;-1.696;2023-07-22T04:29:12;13.73;;;5.37;;
22967;SDS011;11650;48.106;-1.696;2023-07-22T04:31:38;10.20;;;5.07;;
22967;SDS011;11650;48.106;-1.696;2023-07-22T04:34:04;12.87;;;5.37;;
22967;SDS011;11650;48.106;-1.696;2023-07-22T04:36:31;8.67;;;4.97;;
22967;SDS011;11650;48.106;-1.696;2023-07-22T04:38:57;10.30;;;4.87;;
22967;SDS011;11650;48.106;-1.696;2023-07-22T04:41:23;14.33;;;5.03;;
22967;SDS011;11650;48.106;-1.696;2023-07-22T04:43:49;11.47;;;5.10;;
22967;SDS011;11650;48.106;-1.696;2023-07-22T04:46:15;9.93;;;4.87;;
22967;SDS011;11650;48.106;-1.696;2023-07-22T04:48:41;13.40;;;5.00;;
22967;SDS011;11650;48.106;-1.696;2023-07-22T04:51:07;14.80;;;5.53;;
22967;SDS011;11650;48.106;-1.696;2023-07-22T04:53:33;12.93;;;5.10;;
22967;SDS011;11650;48.106;-1.696;2023-07-22T04:55:58;11.30;;;5.30;;
22967;SDS011;11650;48.106;-1.696;2023-07-22T04:58:24;10.37;;;5.60;;
22967;SDS011;11650;48.106;-1.696;2023-07-22T05:00:50;12.57;;;5.30;;
22967;SDS011;11650;48.106;-1.696;2023-07-22T05:03:16;9.47;;;5.10;;
22967;SDS011;11650;48.106;-1.696;2023-07-22T05:05:43;13.63;;;5.40;;
22967;SDS011;11650;48.106;-1.696;2023-07-22T05:08:09;9.23;;;4.90;;
22967;SDS011;11650;48.106;-1.696;2023-07-22T05:10:34;16.33;;;5.30;;
22967;SDS011;11650;48.106;-1.696;2023-07-22T05:13:01;11.50;;;4.93;;
22967;SDS011;11650;48.106;-1.696;2023-07-22T05:15:27;14.80;;;5.40;;
22967;SDS011;11650;48.106;-1.696;2023-07-22T05:17:52;11.57;;;5.30;;
22967;SDS011;11650;48.106;-1.696;2023-07-22T05:20:18;10.23;;;5.20;;
22967;SDS011;11650;48.106;-1.696;2023-07-22T05:22:43;11.60;;;4.97;;
22967;SDS011;11650;48.106;-1.696;2023-07-22T05:25:09;12.17;;;5.13;;
22967;SDS011;11650;48.106;-1.696;2023-07-22T05:27:35;19.43;;;5.03;;
22967;SDS011;11650;48.106;-1.696;2023-07-22T05:30:01;14.83;;;5.63;;
22967;SDS011;11650;48.106;-1.696;2023-07-22T05:32:30;12.10;;;5.00;;
22967;SDS011;11650;48.106;-1.696;2023-07-22T05:34:56;12.93;;;5.47;;
22967;SDS011;11650;48.106;-1.696;2023-07-22T05:37:22;10.20;;;5.20;;
22967;SDS011;11650;48.106;-1.696;2023-07-22T05:39:48;12.37;;;5.47;;
22967;SDS011;11650;48.106;-1.696;2023-07-22T05:42:14;13.23;;;5.33;;
22967;SDS011;11650;48.106;-1.696;2023-07-22T05:44:40;13.37;;;5.70;;
22967;SDS011;11650;48.106;-1.696;2023-07-22T05:47:05;13.90;;;5.77;;
22967;SDS011;11650;48.106;-1.696;2023-07-22T05:49:31;14.17;;;5.77;;
22967;SDS011;11650;48.106;-1.696;2023-07-22T05:51:57;10.37;;;5.77;;
22967;SDS011;11650;48.106;-1.696;2023-07-22T05:54:22;13.30;;;5.67;;
22967;SDS011;11650;48.106;-1.696;2023-07-22T05:56:48;11.50;;;5.40;;
22967;SDS011;11650;48.106;-1.696;2023-07-22T05:59:13;11.03;;;6.23;;
22967;SDS011;11650;48.106;-1.696;2023-07-22T06:01:39;14.40;;;6.00;;
22967;SDS011;11650;48.106;-1.696;2023-07-22T06:04:05;10.60;;;5.10;;
22967;SDS011;11650;48.106;-1.696;2023-07-22T06:06:31;10.97;;;5.43;;
22967;SDS011;11650;48.106;-1.696;2023-07-22T06:08:57;15.13;;;5.70;;
22967;SDS011;11650;48.106;-1.696;2023-07-22T06:11:22;13.37;;;5.30;;
22967;SDS011;11650;48.106;-1.696;2023-07-22T06:13:48;12.17;;;5.27;;
22967;SDS011;11650;48.106;-1.696;2023-07-22T06:16:14;14.87;;;5.50;;
22967;SDS011;11650;48.106;-1.696;2023-07-22T06:18:39;12.13;;;5.30;;
22967;SDS011;11650;48.106;-1.696;2023-07-22T06:21:05;17.30;;;5.63;;
22967;SDS011;11650;48.106;-1.696;2023-07-22T06:23:31;10.40;;;5.77;;
22967;SDS011;11650;48.106;-1.696;2023-07-22T06:25:56;9.73;;;5.13;;
22967;SDS011;11650;48.106;-1.696;2023-07-22T06:28:22;11.10;;;5.27;;
22967;SDS011;11650;48.106;-1.696;2023-07-22T06:30:48;11.20;;;5.83;;
22967;SDS011;11650;48.106;-1.696;2023-07-22T06:33:13;10.43;;;5.67;;
22967;SDS011;11650;48.106;-1.696;2023-07-22T06:35:39;10.70;;;5.50;;
22967;SDS011;11650;48.106;-1.696;2023-07-22T06:38:04;13.63;;;5.40;;
22967;SDS011;11650;48.106;-1.696;2023-07-22T06:40:30;10.13;;;5.10;;
22967;SDS011;11650;48.106;-1.696;2023-07-22T06:42:55;8.43;;;4.63;;
22967;SDS011;11650;48.106;-1.696;2023-07-22T06:45:22;13.97;;;5.27;;
22967;SDS011;11650;48.106;-1.696;2023-07-22T06:47:47;16.00;;;4.20;;
22967;SDS011;11650;48.106;-1.696;2023-07-22T06:50:13;12.03;;;5.23;;
22967;SDS011;11650;48.106;-1.696;2023-07-22T06:52:38;10.93;;;5.40;;
22967;SDS011;11650;48.106;-1.696;2023-07-22T06:55:04;8.10;;;4.30;;
22967;SDS011;11650;48.106;-1.696;2023-07-22T06:57:30;8.73;;;4.83;;
22967;SDS011;11650;48.106;-1.696;2023-07-22T06:59:57;15.93;;;5.10;;
22967;SDS011;11650;48.106;-1.696;2023-07-22T07:02:23;12.13;;;5.10;;
22967;SDS011;11650;48.106;-1.696;2023-07-22T07:04:49;8.90;;;4.47;;
22967;SDS011;11650;48.106;-1.696;2023-07-22T07:07:15;12.10;;;5.10;;
22967;SDS011;11650;48.106;-1.696;2023-07-22T07:09:41;9.10;;;5.07;;
22967;SDS011;11650;48.106;-1.696;2023-07-22T07:12:07;10.53;;;4.43;;
22967;SDS011;11650;48.106;-1.696;2023-07-22T07:14:33;8.77;;;4.70;;
22967;SDS011;11650;48.106;-1.696;2023-07-22T07:16:59;10.03;;;4.63;;
22967;SDS011;11650;48.106;-1.696;2023-07-22T07:19:26;10.20;;;4.60;;
22967;SDS011;11650;48.106;-1.696;2023-07-22T07:21:52;12.43;;;4.53;;
22967;SDS011;11650;48.106;-1.696;2023-07-22T07:24:17;8.60;;;4.07;;
22967;SDS011;11650;48.106;-1.696;2023-07-22T07:26:43;7.73;;;4.83;;
22967;SDS011;11650;48.106;-1.696;2023-07-22T07:29:09;8.00;;;4.37;;
22967;SDS011;11650;48.106;-1.696;2023-07-22T07:31:35;9.93;;;5.17;;
22967;SDS011;11650;48.106;-1.696;2023-07-22T07:34:00;8.47;;;4.03;;
22967;SDS011;11650;48.106;-1.696;2023-07-22T07:36:26;10.53;;;3.97;;
22967;SDS011;11650;48.106;-1.696;2023-07-22T07:38:52;8.57;;;4.10;;
22967;SDS011;11650;48.106;-1.696;2023-07-22T07:41:17;8.13;;;4.10;;
22967;SDS011;11650;48.106;-1.696;2023-07-22T07:43:43;7.73;;;3.73;;
22967;SDS011;11650;48.106;-1.696;2023-07-22T07:46:13;8.70;;;3.80;;
22967;SDS011;11650;48.106;-1.696;2023-07-22T07:48:42;9.67;;;3.43;;
22967;SDS011;11650;48.106;-1.696;2023-07-22T07:51:12;8.90;;;3.70;;
22967;SDS011;11650;48.106;-1.696;2023-07-22T07:53:39;11.87;;;4.13;;
22967;SDS011;11650;48.106;-1.696;2023-07-22T07:56:06;11.80;;;3.40;;
22967;SDS011;11650;48.106;-1.696;2023-07-22T07:58:33;7.47;;;3.40;;
22967;SDS011;11650;48.106;-1.696;2023-07-22T08:00:58;6.87;;;3.60;;
22967;SDS011;11650;48.106;-1.696;2023-07-22T08:03:24;9.97;;;3.37;;
22967;SDS011;11650;48.106;-1.696;2023-07-22T08:05:50;10.33;;;3.90;;
22967;SDS011;11650;48.106;-1.696;2023-07-22T08:08:16;10.93;;;3.53;;
22967;SDS011;11650;48.106;-1.696;2023-07-22T08:10:41;7.50;;;3.40;;
22967;SDS011;11650;48.106;-1.696;2023-07-22T08:13:08;11.27;;;4.00;;
22967;SDS011;11650;48.106;-1.696;2023-07-22T08:15:34;6.60;;;3.50;;
22967;SDS011;11650;48.106;-1.696;2023-07-22T08:17:59;8.07;;;3.50;;
22967;SDS011;11650;48.106;-1.696;2023-07-22T08:20:25;5.93;;;3.13;;
22967;SDS011;11650;48.106;-1.696;2023-07-22T08:22:50;11.67;;;3.53;;
22967;SDS011;11650;48.106;-1.696;2023-07-22T08:25:16;12.20;;;4.10;;
22967;SDS011;11650;48.106;-1.696;2023-07-22T08:27:42;10.50;;;4.33;;
22967;SDS011;11650;48.106;-1.696;2023-07-22T08:30:07;9.90;;;3.37;;
22967;SDS011;11650;48.106;-1.696;2023-07-22T08:32:33;11.57;;;4.00;;
22967;SDS011;11650;48.106;-1.696;2023-07-22T08:34:59;6.97;;;2.93;;
22967;SDS011;11650;48.106;-1.696;2023-07-22T08:37:25;9.00;;;3.43;;
22967;SDS011;11650;48.106;-1.696;2023-07-22T08:39:51;8.10;;;3.47;;
22967;SDS011;11650;48.106;-1.696;2023-07-22T08:42:17;7.33;;;3.30;;
22967;SDS011;11650;48.106;-1.696;2023-07-22T08:44:44;5.73;;;3.13;;
22967;SDS011;11650;48.106;-1.696;2023-07-22T08:47:14;6.80;;;3.07;;
22967;SDS011;11650;48.106;-1.696;2023-07-22T08:49:45;8.83;;;3.33;;
22967;SDS011;11650;48.106;-1.696;2023-07-22T08:52:15;6.43;;;3.10;;
22967;SDS011;11650;48.106;-1.696;2023-07-22T08:54:42;7.63;;;3.43;;
22967;SDS011;11650;48.106;-1.696;2023-07-22T08:57:09;10.80;;;3.40;;
22967;SDS011;11650;48.106;-1.696;2023-07-22T08:59:36;7.63;;;3.13;;
22967;SDS011;11650;48.106;-1.696;2023-07-22T09:02:03;6.20;;;3.20;;
22967;SDS011;11650;48.106;-1.696;2023-07-22T09:04:30;5.03;;;2.63;;
22967;SDS011;11650;48.106;-1.696;2023-07-22T09:06:55;7.03;;;3.50;;
22967;SDS011;11650;48.106;-1.696;2023-07-22T09:09:21;9.13;;;2.93;;
22967;SDS011;11650;48.106;-1.696;2023-07-22T09:11:49;6.33;;;3.43;;
22967;SDS011;11650;48.106;-1.696;2023-07-22T09:14:16;8.87;;;3.53;;
22967;SDS011;11650;48.106;-1.696;2023-07-22T09:16:45;7.03;;;3.30;;
22967;SDS011;11650;48.106;-1.696;2023-07-22T09:19:11;7.00;;;3.30;;
22967;SDS011;11650;48.106;-1.696;2023-07-22T09:21:36;7.77;;;3.40;;
22967;SDS011;11650;48.106;-1.696;2023-07-22T09:24:02;6.07;;;3.17;;
22967;SDS011;11650;48.106;-1.696;2023-07-22T09:26:49;7.13;;;3.40;;
22967;SDS011;11650;48.106;-1.696;2023-07-22T09:29:15;7.17;;;3.13;;
22967;SDS011;11650;48.106;-1.696;2023-07-22T09:31:50;5.03;;;2.87;;
22967;SDS011;11650;48.106;-1.696;2023-07-22T09:34:17;7.93;;;3.40;;
22967;SDS011;11650;48.106;-1.696;2023-07-22T09:36:53;6.30;;;2.93;;
22967;SDS011;11650;48.106;-1.696;2023-07-22T09:39:23;7.53;;;3.40;;
22967;SDS011;11650;48.106;-1.696;2023-07-22T09:41:49;5.17;;;2.97;;
22967;SDS011;11650;48.106;-1.696;2023-07-22T09:44:15;5.23;;;3.03;;
22967;SDS011;11650;48.106;-1.696;2023-07-22T09:46:41;4.93;;;2.90;;
22967;SDS011;11650;48.106;-1.696;2023-07-22T09:49:11;6.10;;;2.70;;
22967;SDS011;11650;48.106;-1.696;2023-07-22T09:51:38;6.47;;;3.00;;
22967;SDS011;11650;48.106;-1.696;2023-07-22T09:54:05;7.10;;;2.87;;
22967;SDS011;11650;48.106;-1.696;2023-07-22T09:56:31;5.30;;;2.97;;
22967;SDS011;11650;48.106;-1.696;2023-07-22T09:59:07;6.07;;;3.10;;
22967;SDS011;11650;48.106;-1.696;2023-07-22T10:01:37;8.70;;;3.00;;
22967;SDS011;11650;48.106;-1.696;2023-07-22T10:04:04;7.33;;;3.20;;
22967;SDS011;11650;48.106;-1.696;2023-07-22T10:06:31;7.23;;;3.20;;
22967;SDS011;11650;48.106;-1.696;2023-07-22T10:09:06;5.93;;;3.03;;
22967;SDS011;11650;48.106;-1.696;2023-07-22T10:11:35;11.53;;;2.80;;
22967;SDS011;11650;48.106;-1.696;2023-07-22T10:14:01;4.10;;;2.77;;
22967;SDS011;11650;48.106;-1.696;2023-07-22T10:16:28;6.53;;;2.90;;
22967;SDS011;11650;48.106;-1.696;2023-07-22T10:18:54;7.37;;;2.97;;
22967;SDS011;11650;48.106;-1.696;2023-07-22T10:21:21;6.90;;;3.00;;
22967;SDS011;11650;48.106;-1.696;2023-07-22T10:23:48;5.70;;;3.13;;
22967;SDS011;11650;48.106;-1.696;2023-07-22T10:26:19;4.07;;;2.70;;
22967;SDS011;11650;48.106;-1.696;2023-07-22T10:28:45;6.23;;;2.77;;
22967;SDS011;11650;48.106;-1.696;2023-07-22T10:31:11;7.27;;;2.63;;
22967;SDS011;11650;48.106;-1.696;2023-07-22T10:33:46;8.33;;;3.20;;
22967;SDS011;11650;48.106;-1.696;2023-07-22T10:36:14;5.27;;;2.90;;
22967;SDS011;11650;48.106;-1.696;2023-07-22T10:38:43;4.87;;;2.90;;
22967;SDS011;11650;48.106;-1.696;2023-07-22T10:41:12;5.77;;;2.80;;
22967;SDS011;11650;48.106;-1.696;2023-07-22T10:43:42;5.97;;;2.80;;
22967;SDS011;11650;48.106;-1.696;2023-07-22T10:46:18;6.03;;;2.50;;
22967;SDS011;11650;48.106;-1.696;2023-07-22T10:48:58;5.03;;;2.80;;
22967;SDS011;11650;48.106;-1.696;2023-07-22T10:51:37;4.20;;;2.60;;
22967;SDS011;11650;48.106;-1.696;2023-07-22T10:54:02;6.93;;;2.80;;
22967;SDS011;11650;48.106;-1.696;2023-07-22T10:56:40;4.50;;;2.13;;
22967;SDS011;11650;48.106;-1.696;2023-07-22T10:59:09;3.57;;;2.10;;
22967;SDS011;11650;48.106;-1.696;2023-07-22T11:01:36;4.53;;;2.17;;
22967;SDS011;11650;48.106;-1.696;2023-07-22T11:06:29;5.60;;;2.10;;
22967;SDS011;11650;48.106;-1.696;2023-07-22T11:08:55;4.00;;;2.13;;
22967;SDS011;11650;48.106;-1.696;2023-07-22T11:11:20;6.30;;;2.50;;
22967;SDS011;11650;48.106;-1.696;2023-07-22T11:13:46;3.17;;;1.90;;
22967;SDS011;11650;48.106;-1.696;2023-07-22T11:16:12;2.90;;;1.80;;
22967;SDS011;11650;48.106;-1.696;2023-07-22T11:18:38;4.93;;;2.40;;
22967;SDS011;11650;48.106;-1.696;2023-07-22T11:21:11;4.20;;;2.10;;
22967;SDS011;11650;48.106;-1.696;2023-07-22T11:23:37;7.33;;;2.57;;
22967;SDS011;11650;48.106;-1.696;2023-07-22T11:26:03;3.63;;;2.13;;
22967;SDS011;11650;48.106;-1.696;2023-07-22T11:28:30;4.77;;;2.07;;
22967;SDS011;11650;48.106;-1.696;2023-07-22T11:30:56;5.30;;;2.00;;
22967;SDS011;11650;48.106;-1.696;2023-07-22T11:33:23;2.87;;;1.47;;
22967;SDS011;11650;48.106;-1.696;2023-07-22T11:35:49;3.33;;;2.00;;
22967;SDS011;11650;48.106;-1.696;2023-07-22T11:38:15;3.97;;;1.83;;
22967;SDS011;11650;48.106;-1.696;2023-07-22T11:40:41;4.60;;;2.10;;
22967;SDS011;11650;48.106;-1.696;2023-07-22T11:43:06;3.60;;;1.93;;
22967;SDS011;11650;48.106;-1.696;2023-07-22T11:45:32;3.73;;;2.00;;
22967;SDS011;11650;48.106;-1.696;2023-07-22T11:47:58;3.20;;;1.80;;
22967;SDS011;11650;48.106;-1.696;2023-07-22T11:50:33;4.27;;;2.40;;
22967;SDS011;11650;48.106;-1.696;2023-07-22T11:52:59;4.33;;;2.00;;
22967;SDS011;11650;48.106;-1.696;2023-07-22T11:55:25;5.30;;;2.20;;
22967;SDS011;11650;48.106;-1.696;2023-07-22T11:57:54;4.53;;;2.00;;
22967;SDS011;11650;48.106;-1.696;2023-07-22T12:00:20;5.00;;;2.10;;
22967;SDS011;11650;48.106;-1.696;2023-07-22T12:02:46;2.90;;;1.70;;
22967;SDS011;11650;48.106;-1.696;2023-07-22T12:05:18;5.17;;;1.93;;
22967;SDS011;11650;48.106;-1.696;2023-07-22T12:07:46;3.57;;;1.57;;
22967;SDS011;11650;48.106;-1.696;2023-07-22T12:10:12;5.47;;;2.23;;
22967;SDS011;11650;48.106;-1.696;2023-07-22T12:12:41;3.70;;;1.77;;
22967;SDS011;11650;48.106;-1.696;2023-07-22T12:17:48;4.07;;;2.27;;
22967;SDS011;11650;48.106;-1.696;2023-07-22T12:20:23;4.83;;;2.00;;
22967;SDS011;11650;48.106;-1.696;2023-07-22T12:22:51;3.50;;;2.50;;
22967;SDS011;11650;48.106;-1.696;2023-07-22T12:25:16;4.47;;;2.23;;
22967;SDS011;11650;48.106;-1.696;2023-07-22T12:27:43;3.40;;;2.07;;
22967;SDS011;11650;48.106;-1.696;2023-07-22T12:30:09;4.17;;;2.20;;
22967;SDS011;11650;48.106;-1.696;2023-07-22T12:32:35;2.57;;;1.97;;
22967;SDS011;11650;48.106;-1.696;2023-07-22T12:35:00;5.13;;;2.47;;
22967;SDS011;11650;48.106;-1.696;2023-07-22T12:37:28;4.33;;;2.57;;
22967;SDS011;11650;48.106;-1.696;2023-07-22T12:39:53;5.57;;;2.40;;
22967;SDS011;11650;48.106;-1.696;2023-07-22T12:42:19;7.73;;;2.33;;
22967;SDS011;11650;48.106;-1.696;2023-07-22T12:44:44;9.73;;;2.70;;
22967;SDS011;11650;48.106;-1.696;2023-07-22T12:47:11;4.07;;;2.23;;
22967;SDS011;11650;48.106;-1.696;2023-07-22T12:49:36;3.93;;;2.43;;
22967;SDS011;11650;48.106;-1.696;2023-07-22T12:52:02;6.33;;;2.90;;
22967;SDS011;11650;48.106;-1.696;2023-07-22T12:54:32;4.57;;;3.10;;
22967;SDS011;11650;48.106;-1.696;2023-07-22T12:56:58;5.10;;;3.10;;
22967;SDS011;11650;48.106;-1.696;2023-07-22T12:59:23;5.67;;;3.30;;
22967;SDS011;11650;48.106;-1.696;2023-07-22T13:01:49;6.50;;;3.33;;
22967;SDS011;11650;48.106;-1.696;2023-07-22T13:04:15;6.27;;;3.00;;
22967;SDS011;11650;48.106;-1.696;2023-07-22T13:06:40;5.30;;;3.20;;
22967;SDS011;11650;48.106;-1.696;2023-07-22T13:09:06;6.03;;;3.27;;
22967;SDS011;11650;48.106;-1.696;2023-07-22T13:11:31;5.77;;;3.17;;
22967;SDS011;11650;48.106;-1.696;2023-07-22T13:13:57;5.33;;;3.70;;
22967;SDS011;11650;48.106;-1.696;2023-07-22T13:16:23;6.30;;;3.70;;
22967;SDS011;11650;48.106;-1.696;2023-07-22T13:18:48;5.73;;;3.60;;
22967;SDS011;11650;48.106;-1.696;2023-07-22T13:21:14;4.60;;;3.10;;
22967;SDS011;11650;48.106;-1.696;2023-07-22T13:23:39;4.87;;;3.17;;
22967;SDS011;11650;48.106;-1.696;2023-07-22T13:26:05;4.63;;;3.57;;
22967;SDS011;11650;48.106;-1.696;2023-07-22T13:28:31;4.97;;;3.17;;
22967;SDS011;11650;48.106;-1.696;2023-07-22T13:30:57;5.37;;;3.57;;
22967;SDS011;11650;48.106;-1.696;2023-07-22T13:33:22;5.67;;;3.43;;
22967;SDS011;11650;48.106;-1.696;2023-07-22T13:35:48;4.43;;;3.33;;
22967;SDS011;11650;48.106;-1.696;2023-07-22T13:38:15;6.13;;;3.10;;
22967;SDS011;11650;48.106;-1.696;2023-07-22T13:40:41;4.27;;;2.80;;
22967;SDS011;11650;48.106;-1.696;2023-07-22T13:43:07;5.75;;;3.15;;
22967;SDS011;11650;48.106;-1.696;2023-07-22T13:45:34;5.25;;;3.13;;
22967;SDS011;11650;48.106;-1.696;2023-07-22T13:48:00;6.85;;;2.38;;
22967;SDS011;11650;48.106;-1.696;2023-07-22T13:50:25;7.80;;;2.58;;
22967;SDS011;11650;48.106;-1.696;2023-07-22T13:52:51;5.07;;;3.03;;
22967;SDS011;11650;48.106;-1.696;2023-07-22T13:55:17;4.50;;;2.35;;
22967;SDS011;11650;48.106;-1.696;2023-07-22T13:57:42;3.95;;;2.13;;
22967;SDS011;11650;48.106;-1.696;2023-07-22T14:00:08;4.90;;;2.50;;
22967;SDS011;11650;48.106;-1.696;2023-07-22T14:02:35;3.28;;;2.42;;
22967;SDS011;11650;48.106;-1.696;2023-07-22T14:05:01;4.00;;;2.42;;
22967;SDS011;11650;48.106;-1.696;2023-07-22T14:07:28;5.68;;;2.60;;
22967;SDS011;11650;48.106;-1.696;2023-07-22T14:09:53;5.60;;;2.25;;
22967;SDS011;11650;48.106;-1.696;2023-07-22T14:12:19;4.88;;;2.47;;
22967;SDS011;11650;48.106;-1.696;2023-07-22T14:14:45;8.13;;;2.70;;
22967;SDS011;11650;48.106;-1.696;2023-07-22T14:17:11;4.97;;;2.70;;
22967;SDS011;11650;48.106;-1.696;2023-07-22T14:19:37;4.35;;;2.85;;
22967;SDS011;11650;48.106;-1.696;2023-07-22T14:22:02;6.18;;;2.90;;
22967;SDS011;11650;48.106;-1.696;2023-07-22T14:24:29;4.38;;;2.53;;
22967;SDS011;11650;48.106;-1.696;2023-07-22T14:26:55;6.50;;;2.60;;
22967;SDS011;11650;48.106;-1.696;2023-07-22T14:29:20;5.05;;;3.20;;